Time;durP1;ratioP1;P1;durP2;ratioP2;P2;SDS_P1;SDS_P2;PMS_P1;PMS_P2;Temp;Humidity;BMP_temperature;BMP_pressure;BME280_temperature;BME280_humidity;BME280_pressure;Samples;Min_cycle;Max_cycle;Signal;HPM_P1;HPM_P2
2022/02/28 00:00:57;;;;;;;57.40;33.42;;;;;;;;;;5102565;28;20410;-74
2022/02/28 00:03:22;;;;;;;19.25;12.43;;;;;;;;;;5103066;28;20028;-75
2022/02/28 00:05:48;;;;;;;55.72;28.90;;;;;;;;;;5101377;28;20031;-74
2022/02/28 00:08:13;;;;;;;278.63;111.00;;;;;;;;;;5102564;28;20028;-74
2022/02/28 00:10:38;;;;;;;207.43;74.93;;;;;;;;;;5102804;28;20073;-74
2022/02/28 00:13:04;;;;;;;57.60;24.83;;;;;;;;;;5102611;28;20079;-74
2022/02/28 00:15:30;;;;;;;55.40;21.70;;;;;;;;;;5102522;28;20409;-74
2022/02/28 00:17:55;;;;;;;185.27;58.25;;;;;;;;;;5102968;28;20513;-73
2022/02/28 00:20:21;;;;;;;162.82;61.80;;;;;;;;;;5102184;28;20094;-72
2022/02/28 00:22:49;;;;;;;31.10;18.58;;;;;;;;;;5101212;28;20016;-74
2022/02/28 00:25:15;;;;;;;19.25;11.70;;;;;;;;;;5102239;28;20048;-74
2022/02/28 00:27:41;;;;;;;11.82;5.45;;;;;;;;;;5100906;28;20394;-74
2022/02/28 00:30:08;;;;;;;91.80;36.88;;;;;;;;;;5102148;28;20454;-74
2022/02/28 00:32:34;;;;;;;86.65;31.45;;;;;;;;;;5102227;28;20024;-74
2022/02/28 00:34:59;;;;;;;26.33;14.40;;;;;;;;;;5102495;28;20028;-74
2022/02/28 00:37:24;;;;;;;9.70;5.93;;;;;;;;;;5102261;28;20023;-74
2022/02/28 00:39:50;;;;;;;5.50;3.33;;;;;;;;;;5102225;28;20510;-74
2022/02/28 00:42:15;;;;;;;8.45;4.38;;;;;;;;;;5105828;28;20032;-74
2022/02/28 00:44:41;;;;;;;4.82;2.40;;;;;;;;;;5105804;28;20032;-74
2022/02/28 00:47:07;;;;;;;4.28;1.42;;;;;;;;;;5106053;28;20026;-75
2022/02/28 00:49:33;;;;;;;2.80;1.20;;;;;;;;;;5105675;28;20035;-74
2022/02/28 00:51:59;;;;;;;3.17;1.30;;;;;;;;;;5106231;28;20024;-74
2022/02/28 00:54:25;;;;;;;4.18;1.40;;;;;;;;;;5104402;28;20031;-75
2022/02/28 00:56:51;;;;;;;4.00;1.08;;;;;;;;;;5105797;28;20039;-75
2022/02/28 00:59:16;;;;;;;4.15;1.20;;;;;;;;;;5105539;28;20028;-74
2022/02/28 01:01:42;;;;;;;2.60;1.08;;;;;;;;;;5104129;28;20418;-74
2022/02/28 01:04:07;;;;;;;2.33;1.25;;;;;;;;;;5104224;28;20398;-74
2022/02/28 01:06:34;;;;;;;3.45;1.55;;;;;;;;;;5105876;28;20093;-75
2022/02/28 01:08:59;;;;;;;2.90;1.20;;;;;;;;;;5105316;28;20036;-74
2022/02/28 01:11:25;;;;;;;5.47;1.40;;;;;;;;;;5105743;28;20036;-74
2022/02/28 01:13:50;;;;;;;2.03;1.08;;;;;;;;;;5105442;28;20024;-75
2022/02/28 01:16:16;;;;;;;2.47;1.13;;;;;;;;;;5104015;28;20036;-75
2022/02/28 01:18:42;;;;;;;5.07;1.85;;;;;;;;;;5105214;28;20119;-75
2022/02/28 01:21:07;;;;;;;4.07;1.23;;;;;;;;;;5103934;28;20031;-74
2022/02/28 01:23:33;;;;;;;3.28;1.55;;;;;;;;;;5105332;28;20493;-75
2022/02/28 01:25:58;;;;;;;3.28;1.20;;;;;;;;;;5104752;28;20058;-74
2022/02/28 01:28:24;;;;;;;4.68;1.48;;;;;;;;;;5105243;28;20034;-75
2022/02/28 01:30:49;;;;;;;2.53;1.15;;;;;;;;;;5104806;28;20070;-74
2022/02/28 01:33:15;;;;;;;3.80;1.20;;;;;;;;;;5105112;28;20081;-75
2022/02/28 01:35:40;;;;;;;3.42;1.60;;;;;;;;;;5104999;28;20020;-74
2022/02/28 01:38:06;;;;;;;3.70;1.40;;;;;;;;;;5105282;28;20035;-74
2022/02/28 01:40:31;;;;;;;2.65;1.50;;;;;;;;;;5103169;28;20035;-74
2022/02/28 01:42:57;;;;;;;6.07;1.42;;;;;;;;;;5103697;28;20039;-75
2022/02/28 01:45:23;;;;;;;3.80;1.42;;;;;;;;;;5104592;28;20032;-75
2022/02/28 01:47:52;;;;;;;3.75;1.65;;;;;;;;;;5104924;28;20032;-75
2022/02/28 01:50:18;;;;;;;2.05;1.20;;;;;;;;;;5104775;28;20127;-75
2022/02/28 01:52:45;;;;;;;3.03;1.35;;;;;;;;;;5104179;28;20035;-74
2022/02/28 01:55:12;;;;;;;3.65;1.40;;;;;;;;;;5104456;28;20035;-75
2022/02/28 01:57:40;;;;;;;4.10;1.10;;;;;;;;;;5104902;28;20028;-75
2022/02/28 02:00:08;;;;;;;6.45;1.42;;;;;;;;;;5104336;28;20488;-75
2022/02/28 02:02:34;;;;;;;5.07;1.60;;;;;;;;;;5104292;28;20058;-74
2022/02/28 02:04:59;;;;;;;5.00;1.30;;;;;;;;;;5103036;28;20024;-75
2022/02/28 02:07:25;;;;;;;4.30;1.25;;;;;;;;;;5102983;28;20051;-74
2022/02/28 02:09:51;;;;;;;6.82;1.52;;;;;;;;;;5104350;28;20097;-75
2022/02/28 02:12:16;;;;;;;3.30;1.30;;;;;;;;;;5102763;28;20027;-74
2022/02/28 02:14:42;;;;;;;3.33;1.40;;;;;;;;;;5102563;28;20035;-75
2022/02/28 02:17:08;;;;;;;8.48;1.40;;;;;;;;;;5104121;28;20128;-74
2022/02/28 02:19:36;;;;;;;3.70;1.30;;;;;;;;;;5104276;28;20031;-75
2022/02/28 02:22:03;;;;;;;4.00;0.82;;;;;;;;;;5104314;28;20028;-74
2022/02/28 02:24:29;;;;;;;5.28;1.73;;;;;;;;;;5103648;28;20418;-75
2022/02/28 02:26:54;;;;;;;2.53;1.20;;;;;;;;;;5103955;28;20051;-75
2022/02/28 02:29:20;;;;;;;4.78;1.20;;;;;;;;;;5103946;28;20524;-75
2022/02/28 02:31:45;;;;;;;4.55;1.33;;;;;;;;;;5103774;28;20031;-75
2022/02/28 02:34:10;;;;;;;3.85;1.75;;;;;;;;;;5104279;28;20027;-75
2022/02/28 02:36:40;;;;;;;2.53;1.25;;;;;;;;;;5102463;28;20032;-75
2022/02/28 02:39:05;;;;;;;2.58;1.15;;;;;;;;;;5103735;28;20023;-75
2022/02/28 02:41:31;;;;;;;2.83;1.30;;;;;;;;;;5103689;28;20091;-74
2022/02/28 02:43:56;;;;;;;3.33;1.33;;;;;;;;;;5103996;28;20024;-74
2022/02/28 02:46:22;;;;;;;6.32;1.60;;;;;;;;;;5103644;28;20497;-75
2022/02/28 02:48:47;;;;;;;4.25;1.45;;;;;;;;;;5103431;28;20054;-75
2022/02/28 02:51:17;;;;;;;3.63;1.52;;;;;;;;;;5103613;28;20028;-75
2022/02/28 02:53:43;;;;;;;3.60;1.45;;;;;;;;;;5103436;28;20028;-74
2022/02/28 02:56:08;;;;;;;4.68;1.30;;;;;;;;;;5102374;28;20026;-75
2022/02/28 02:58:34;;;;;;;4.25;1.30;;;;;;;;;;5103568;28;20531;-75
2022/02/28 03:00:59;;;;;;;4.20;1.90;;;;;;;;;;5103205;28;20024;-74
2022/02/28 03:03:25;;;;;;;3.45;1.50;;;;;;;;;;5102976;28;20039;-74
2022/02/28 03:05:51;;;;;;;4.60;1.58;;;;;;;;;;5101411;28;20024;-74
2022/02/28 03:08:17;;;;;;;2.67;1.33;;;;;;;;;;5103405;28;20039;-74
2022/02/28 03:10:42;;;;;;;3.33;1.30;;;;;;;;;;5103149;28;20032;-75
2022/02/28 03:13:08;;;;;;;2.88;1.52;;;;;;;;;;5101750;28;20039;-75
2022/02/28 03:15:33;;;;;;;7.35;1.55;;;;;;;;;;5101524;28;20391;-74
2022/02/28 03:17:59;;;;;;;6.68;1.60;;;;;;;;;;5103559;28;20028;-74
2022/02/28 03:20:24;;;;;;;3.60;1.25;;;;;;;;;;5102768;28;20077;-75
2022/02/28 03:22:50;;;;;;;6.43;1.35;;;;;;;;;;5103217;28;20095;-73
2022/02/28 03:25:15;;;;;;;6.20;1.63;;;;;;;;;;5102864;28;20055;-73
2022/02/28 03:27:41;;;;;;;3.03;1.40;;;;;;;;;;5103201;28;20030;-73
2022/02/28 03:30:07;;;;;;;6.28;2.20;;;;;;;;;;5101304;28;20055;-73
2022/02/28 03:32:33;;;;;;;5.60;1.70;;;;;;;;;;5101765;28;20028;-73
2022/02/28 03:34:58;;;;;;;4.95;1.58;;;;;;;;;;5102880;28;20028;-73
2022/02/28 03:37:24;;;;;;;4.18;1.50;;;;;;;;;;5101699;28;20020;-73
2022/02/28 03:39:49;;;;;;;6.95;2.00;;;;;;;;;;5102718;28;20020;-73
2022/02/28 03:42:15;;;;;;;3.35;1.52;;;;;;;;;;5103202;28;20027;-73
2022/02/28 03:44:40;;;;;;;4.90;1.80;;;;;;;;;;5102562;28;20051;-73
2022/02/28 03:47:06;;;;;;;7.80;1.85;;;;;;;;;;5102608;28;20089;-73
2022/02/28 03:49:32;;;;;;;4.80;1.50;;;;;;;;;;5103028;28;20106;-73
2022/02/28 03:51:57;;;;;;;5.95;2.00;;;;;;;;;;5102796;28;20124;-73
2022/02/28 03:54:23;;;;;;;2.28;1.30;;;;;;;;;;5101439;28;20031;-73
2022/02/28 03:56:48;;;;;;;2.58;1.50;;;;;;;;;;5101690;28;20028;-73
2022/02/28 03:59:14;;;;;;;5.07;1.63;;;;;;;;;;5101077;28;20043;-73
2022/02/28 04:01:42;;;;;;;6.40;1.58;;;;;;;;;;5102972;28;20103;-73
2022/02/28 04:04:08;;;;;;;6.13;1.95;;;;;;;;;;5102541;28;20024;-73
2022/02/28 04:06:35;;;;;;;5.75;1.63;;;;;;;;;;5103077;28;20034;-73
2022/02/28 04:09:01;;;;;;;5.45;1.80;;;;;;;;;;5102506;28;20020;-73
2022/02/28 04:11:28;;;;;;;8.95;1.90;;;;;;;;;;5102813;28;20035;-73
2022/02/28 04:13:53;;;;;;;3.83;1.63;;;;;;;;;;5102390;28;20032;-73
2022/02/28 04:16:19;;;;;;;4.15;1.95;;;;;;;;;;5103610;28;20030;-74
2022/02/28 04:18:44;;;;;;;4.47;1.40;;;;;;;;;;5106339;28;20032;-73
2022/02/28 04:21:10;;;;;;;4.60;1.50;;;;;;;;;;5106432;28;20051;-73
2022/02/28 04:23:35;;;;;;;5.85;1.70;;;;;;;;;;5106378;28;20051;-73
2022/02/28 04:26:02;;;;;;;5.68;1.98;;;;;;;;;;5106290;28;20100;-73
2022/02/28 04:28:27;;;;;;;3.88;2.08;;;;;;;;;;5104947;28;20497;-73
2022/02/28 04:30:53;;;;;;;3.58;1.80;;;;;;;;;;5106299;28;20032;-73
2022/02/28 04:33:18;;;;;;;4.07;1.80;;;;;;;;;;5104660;28;20024;-73
2022/02/28 04:35:44;;;;;;;2.80;1.73;;;;;;;;;;5106352;28;20036;-73
2022/02/28 04:38:09;;;;;;;7.25;1.90;;;;;;;;;;5106142;28;20052;-73
2022/02/28 04:40:36;;;;;;;5.13;2.03;;;;;;;;;;5106149;28;20032;-73
2022/02/28 04:43:01;;;;;;;3.78;1.80;;;;;;;;;;5106009;28;20486;-73
2022/02/28 04:45:27;;;;;;;3.75;1.75;;;;;;;;;;5106077;28;20077;-73
2022/02/28 04:47:53;;;;;;;6.35;1.80;;;;;;;;;;5106204;28;20409;-73
2022/02/28 04:50:18;;;;;;;6.38;2.25;;;;;;;;;;5104185;28;20028;-74
2022/02/28 04:52:44;;;;;;;10.52;3.53;;;;;;;;;;5105703;28;20028;-74
2022/02/28 04:55:09;;;;;;;5.05;2.25;;;;;;;;;;5105977;28;20460;-74
2022/02/28 04:57:43;;;;;;;8.43;2.17;;;;;;;;;;5104423;28;20035;-73
2022/02/28 05:00:10;;;;;;;97.90;4.38;;;;;;;;;;5106032;28;20027;-73
2022/02/28 05:02:36;;;;;;;8.40;1.92;;;;;;;;;;5105297;28;20024;-73
2022/02/28 05:05:03;;;;;;;7.13;2.10;;;;;;;;;;5105785;28;20032;-74
2022/02/28 05:07:29;;;;;;;3.97;2.20;;;;;;;;;;5105645;28;20024;-73
2022/02/28 05:09:54;;;;;;;4.50;1.65;;;;;;;;;;5105402;28;20021;-73
2022/02/28 05:12:20;;;;;;;3.60;1.75;;;;;;;;;;5103798;28;20024;-73
2022/02/28 05:14:45;;;;;;;3.97;1.92;;;;;;;;;;5105302;28;20032;-73
2022/02/28 05:17:10;;;;;;;4.40;2.00;;;;;;;;;;5104302;28;20027;-74
2022/02/28 05:19:36;;;;;;;6.03;2.08;;;;;;;;;;5105007;28;20062;-73
2022/02/28 05:22:03;;;;;;;6.88;2.25;;;;;;;;;;5105284;28;20494;-73
2022/02/28 05:24:29;;;;;;;4.45;1.60;;;;;;;;;;5104328;28;20047;-73
2022/02/28 05:26:55;;;;;;;6.30;2.05;;;;;;;;;;5102692;28;20091;-73
2022/02/28 05:29:20;;;;;;;5.85;1.88;;;;;;;;;;5105267;28;20268;-74
2022/02/28 05:31:46;;;;;;;7.13;1.92;;;;;;;;;;5105293;28;20020;-74
2022/02/28 05:34:11;;;;;;;5.38;1.67;;;;;;;;;;5105043;28;20083;-74
2022/02/28 05:36:36;;;;;;;4.22;1.42;;;;;;;;;;5105392;28;20028;-74
2022/02/28 05:39:02;;;;;;;6.80;1.60;;;;;;;;;;5105172;28;20058;-73
2022/02/28 05:41:28;;;;;;;5.18;1.90;;;;;;;;;;5103805;28;20039;-73
2022/02/28 05:43:53;;;;;;;5.07;1.70;;;;;;;;;;5104782;28;20081;-73
2022/02/28 05:46:19;;;;;;;6.78;1.67;;;;;;;;;;5104786;28;20032;-74
2022/02/28 05:48:44;;;;;;;4.22;1.60;;;;;;;;;;5104969;28;20065;-73
2022/02/28 05:51:13;;;;;;;2.78;1.50;;;;;;;;;;5103228;28;20032;-73
2022/02/28 05:53:38;;;;;;;5.28;1.60;;;;;;;;;;5104499;28;20071;-73
2022/02/28 05:56:05;;;;;;;4.13;1.35;;;;;;;;;;5104818;28;20020;-73
2022/02/28 05:58:30;;;;;;;4.63;1.45;;;;;;;;;;5103370;28;20024;-71
2022/02/28 06:00:56;;;;;;;7.03;1.52;;;;;;;;;;5104433;28;20024;-73
2022/02/28 06:03:21;;;;;;;6.53;1.60;;;;;;;;;;5104383;28;20040;-73
2022/02/28 06:05:47;;;;;;;4.60;1.65;;;;;;;;;;5104673;28;20035;-73
2022/02/28 06:08:12;;;;;;;5.35;1.60;;;;;;;;;;5104365;28;20028;-73
2022/02/28 06:10:37;;;;;;;3.70;1.70;;;;;;;;;;5104446;28;20047;-73
2022/02/28 06:13:03;;;;;;;3.80;1.58;;;;;;;;;;5104155;28;20035;-73
2022/02/28 06:15:28;;;;;;;6.90;2.25;;;;;;;;;;5104528;28;20038;-73
2022/02/28 06:17:53;;;;;;;7.90;2.05;;;;;;;;;;5104615;28;20114;-73
2022/02/28 06:20:19;;;;;;;5.20;1.80;;;;;;;;;;5104047;28;20028;-73
2022/02/28 06:22:45;;;;;;;6.15;2.33;;;;;;;;;;5103840;28;20028;-73
2022/02/28 06:25:10;;;;;;;6.07;1.98;;;;;;;;;;5103676;28;20531;-73
2022/02/28 06:27:36;;;;;;;6.82;2.65;;;;;;;;;;5104020;28;20035;-73
2022/02/28 06:30:02;;;;;;;8.45;2.17;;;;;;;;;;5102440;28;20040;-73
2022/02/28 06:32:27;;;;;;;3.72;2.15;;;;;;;;;;5103857;28;20077;-72
2022/02/28 06:34:53;;;;;;;6.70;2.10;;;;;;;;;;5103856;28;20274;-73
2022/02/28 06:37:19;;;;;;;5.53;1.90;;;;;;;;;;5103868;28;20035;-73
2022/02/28 06:39:45;;;;;;;7.57;2.55;;;;;;;;;;5103536;28;20035;-73
2022/02/28 06:42:11;;;;;;;4.60;2.20;;;;;;;;;;5102382;28;20031;-73
2022/02/28 06:44:37;;;;;;;7.50;2.10;;;;;;;;;;5103613;28;20073;-74
2022/02/28 06:47:02;;;;;;;8.07;2.22;;;;;;;;;;5103771;28;20024;-73
2022/02/28 06:49:28;;;;;;;6.25;1.70;;;;;;;;;;5103738;28;20032;-73
2022/02/28 06:51:53;;;;;;;5.93;1.85;;;;;;;;;;5103645;28;20052;-74
2022/02/28 06:54:19;;;;;;;6.13;2.22;;;;;;;;;;5103500;28;20027;-73
2022/02/28 06:56:44;;;;;;;6.03;1.92;;;;;;;;;;5101992;28;20062;-73
2022/02/28 06:59:10;;;;;;;12.18;2.50;;;;;;;;;;5103370;28;20016;-73
2022/02/28 07:01:36;;;;;;;10.63;2.60;;;;;;;;;;5103347;28;20382;-73
2022/02/28 07:04:03;;;;;;;4.10;1.95;;;;;;;;;;5103214;28;20024;-73
2022/02/28 07:06:28;;;;;;;5.93;2.10;;;;;;;;;;5103698;28;20024;-73
2022/02/28 07:08:54;;;;;;;7.10;2.13;;;;;;;;;;5103534;28;20024;-73
2022/02/28 07:11:20;;;;;;;8.10;2.17;;;;;;;;;;5103589;28;20031;-74
2022/02/28 07:13:45;;;;;;;8.52;1.65;;;;;;;;;;5103276;28;20081;-74
2022/02/28 07:16:17;;;;;;;4.93;1.70;;;;;;;;;;5103293;28;20035;-76
2022/02/28 07:18:43;;;;;;;3.25;1.50;;;;;;;;;;5103414;28;20035;-74
2022/02/28 07:21:08;;;;;;;6.30;2.38;;;;;;;;;;5101855;28;20023;-73
2022/02/28 07:23:33;;;;;;;6.88;2.00;;;;;;;;;;5102974;28;20035;-74
2022/02/28 07:25:59;;;;;;;4.90;1.85;;;;;;;;;;5101504;28;20051;-74
2022/02/28 07:28:24;;;;;;;4.65;2.10;;;;;;;;;;5103497;28;20081;-74
2022/02/28 07:30:50;;;;;;;4.22;1.95;;;;;;;;;;5102882;28;20024;-74
2022/02/28 07:33:16;;;;;;;5.60;2.03;;;;;;;;;;5101682;28;20035;-75
2022/02/28 07:35:42;;;;;;;3.97;1.77;;;;;;;;;;5101346;28;20024;-74
2022/02/28 07:38:07;;;;;;;9.57;2.00;;;;;;;;;;5103199;28;20035;-74
2022/02/28 07:40:33;;;;;;;6.95;2.35;;;;;;;;;;5101714;28;20043;-75
2022/02/28 07:42:58;;;;;;;4.93;1.90;;;;;;;;;;5101563;28;20055;-75
2022/02/28 07:45:24;;;;;;;7.63;2.28;;;;;;;;;;5101637;28;20504;-75
2022/02/28 07:47:50;;;;;;;5.93;2.08;;;;;;;;;;5102200;28;20115;-75
2022/02/28 07:50:15;;;;;;;6.47;2.67;;;;;;;;;;5101571;28;20028;-75
2022/02/28 07:52:41;;;;;;;6.80;1.58;;;;;;;;;;5106047;28;20060;-75
2022/02/28 07:55:06;;;;;;;9.35;2.70;;;;;;;;;;5106816;28;20046;-74
2022/02/28 07:57:32;;;;;;;6.45;2.05;;;;;;;;;;5107093;28;20050;-74
2022/02/28 07:59:57;;;;;;;5.75;2.40;;;;;;;;;;5106926;28;20049;-73
2022/02/28 08:02:24;;;;;;;5.95;2.13;;;;;;;;;;5107082;28;20024;-75
2022/02/28 08:04:50;;;;;;;5.70;2.10;;;;;;;;;;5106879;28;20028;-74
2022/02/28 08:07:15;;;;;;;6.65;2.30;;;;;;;;;;5105472;28;20035;-74
2022/02/28 08:09:41;;;;;;;7.38;1.48;;;;;;;;;;5106642;28;20051;-75
2022/02/28 08:12:06;;;;;;;4.43;1.55;;;;;;;;;;5106933;28;20243;-75
2022/02/28 08:14:32;;;;;;;5.28;1.50;;;;;;;;;;5106661;28;20024;-75
2022/02/28 08:16:57;;;;;;;6.38;1.48;;;;;;;;;;5106843;28;20115;-74
2022/02/28 08:19:23;;;;;;;3.42;1.48;;;;;;;;;;5106299;28;20058;-74
2022/02/28 08:21:48;;;;;;;3.38;1.27;;;;;;;;;;5106850;28;20024;-74
2022/02/28 08:24:14;;;;;;;3.38;0.93;;;;;;;;;;5103381;28;20036;-74
2022/02/28 08:26:39;;;;;;;3.90;1.08;;;;;;;;;;5106607;28;20424;-75
2022/02/28 08:29:04;;;;;;;3.10;0.88;;;;;;;;;;5106622;28;20096;-74
2022/02/28 08:31:30;;;;;;;1.75;0.98;;;;;;;;;;5106765;28;20024;-75
2022/02/28 08:33:55;;;;;;;4.30;1.13;;;;;;;;;;5106575;28;20048;-74
2022/02/28 08:36:21;;;;;;;3.40;1.10;;;;;;;;;;5106275;28;20027;-75
2022/02/28 08:38:47;;;;;;;2.50;1.40;;;;;;;;;;5106427;28;20016;-75
2022/02/28 08:41:13;;;;;;;1.65;0.70;;;;;;;;;;5106908;28;20039;-76
2022/02/28 08:43:38;;;;;;;0.85;0.63;;;;;;;;;;5106515;28;20024;-74
2022/02/28 08:46:05;;;;;;;1.02;0.70;;;;;;;;;;5106447;28;20058;-75
2022/02/28 08:48:30;;;;;;;3.55;0.90;;;;;;;;;;5106301;28;20023;-75
2022/02/28 08:50:56;;;;;;;1.40;0.80;;;;;;;;;;5106309;28;20028;-76
2022/02/28 08:53:22;;;;;;;3.47;1.00;;;;;;;;;;5106378;28;20020;-75
2022/02/28 08:55:47;;;;;;;3.00;0.90;;;;;;;;;;5104860;28;20024;-75
2022/02/28 08:58:14;;;;;;;1.35;0.80;;;;;;;;;;5104984;28;20059;-75
2022/02/28 09:00:39;;;;;;;1.50;0.75;;;;;;;;;;5106308;28;20023;-75
2022/02/28 09:03:06;;;;;;;1.75;0.70;;;;;;;;;;5105094;28;20028;-75
2022/02/28 09:05:36;;;;;;;1.98;0.73;;;;;;;;;;5106060;28;20476;-75
2022/02/28 09:08:02;;;;;;;1.67;0.57;;;;;;;;;;5106056;28;20052;-75
2022/02/28 09:10:27;;;;;;;1.05;0.60;;;;;;;;;;5104533;28;20031;-75
2022/02/28 09:12:53;;;;;;;2.85;0.70;;;;;;;;;;5105982;28;20401;-75
2022/02/28 09:15:19;;;;;;;1.90;0.70;;;;;;;;;;5105755;28;20020;-75
2022/02/28 09:17:44;;;;;;;1.40;0.65;;;;;;;;;;5105967;28;20071;-75
2022/02/28 09:20:11;;;;;;;2.00;0.52;;;;;;;;;;5104167;28;20038;-75
2022/02/28 09:22:37;;;;;;;2.78;0.85;;;;;;;;;;5104621;28;20024;-75
2022/02/28 09:25:04;;;;;;;3.22;0.82;;;;;;;;;;5104992;28;20048;-75
2022/02/28 09:27:29;;;;;;;3.15;0.73;;;;;;;;;;5105724;28;20031;-75
2022/02/28 09:29:55;;;;;;;0.95;0.52;;;;;;;;;;5104032;28;20027;-75
2022/02/28 09:32:20;;;;;;;1.27;0.60;;;;;;;;;;5104172;28;20028;-75
2022/02/28 09:34:48;;;;;;;1.83;0.32;;;;;;;;;;5103931;28;20016;-75
2022/02/28 09:37:13;;;;;;;3.75;0.65;;;;;;;;;;5105534;28;20016;-75
2022/02/28 09:39:38;;;;;;;2.30;0.80;;;;;;;;;;5103837;28;20028;-75
2022/02/28 09:42:04;;;;;;;1.10;0.43;;;;;;;;;;5104264;28;20370;-75
2022/02/28 09:44:31;;;;;;;1.58;0.50;;;;;;;;;;5105274;28;20039;-75
2022/02/28 09:46:57;;;;;;;0.93;0.60;;;;;;;;;;5103951;28;20499;-75
2022/02/28 09:49:23;;;;;;;2.00;0.68;;;;;;;;;;5103658;28;20031;-75
2022/02/28 09:51:48;;;;;;;0.70;0.63;;;;;;;;;;5103852;28;20077;-75
2022/02/28 09:54:14;;;;;;;1.75;0.45;;;;;;;;;;5104644;28;20035;-75
2022/02/28 09:56:39;;;;;;;2.15;0.40;;;;;;;;;;5104939;28;20016;-75
2022/02/28 09:59:05;;;;;;;2.28;0.63;;;;;;;;;;5105076;28;20026;-75
2022/02/28 10:01:30;;;;;;;1.20;0.45;;;;;;;;;;5103772;28;20056;-75
2022/02/28 10:03:56;;;;;;;0.30;0.20;;;;;;;;;;5103545;28;20047;-75
2022/02/28 10:06:22;;;;;;;1.30;0.43;;;;;;;;;;5105381;28;20028;-75
2022/02/28 10:08:53;;;;;;;1.20;0.30;;;;;;;;;;5105412;28;20024;-74
2022/02/28 10:11:26;;;;;;;2.20;0.60;;;;;;;;;;5105176;28;20035;-74
2022/02/28 10:13:54;;;;;;;0.43;0.30;;;;;;;;;;5104336;28;20016;-74
2022/02/28 10:16:44;;;;;;;1.10;0.50;;;;;;;;;;5103332;28;20115;-75
2022/02/28 10:19:15;;;;;;;0.50;0.35;;;;;;;;;;5104582;28;20035;-74
2022/02/28 10:21:45;;;;;;;0.50;0.20;;;;;;;;;;5104680;28;20127;-74
2022/02/28 10:24:26;;;;;;;2.75;0.60;;;;;;;;;;5104045;28;20044;-74
2022/02/28 10:26:57;;;;;;;3.72;0.80;;;;;;;;;;5104373;28;20020;-74
2022/02/28 10:29:23;;;;;;;0.93;0.50;;;;;;;;;;5104494;28;20034;-74
2022/02/28 10:31:49;;;;;;;2.13;0.50;;;;;;;;;;5104548;28;20138;-74
2022/02/28 10:34:22;;;;;;;1.02;0.40;;;;;;;;;;5104292;28;20611;-74
2022/02/28 10:37:02;;;;;;;2.03;0.70;;;;;;;;;;5104475;28;20048;-74
2022/02/28 10:39:39;;;;;;;2.20;0.50;;;;;;;;;;5103899;28;20389;-74
2022/02/28 10:42:15;;;;;;;1.15;0.60;;;;;;;;;;5102536;28;20028;-74
2022/02/28 10:44:41;;;;;;;0.75;0.45;;;;;;;;;;5104216;28;20028;-73
2022/02/28 10:47:09;;;;;;;2.25;0.40;;;;;;;;;;5104149;28;20034;-73
2022/02/28 10:49:36;;;;;;;2.83;0.73;;;;;;;;;;5103755;28;20035;-73
2022/02/28 10:52:07;;;;;;;1.40;0.50;;;;;;;;;;5103951;28;20076;-74
2022/02/28 10:54:35;;;;;;;2.53;0.30;;;;;;;;;;5102504;28;20488;-74
2022/02/28 10:57:19;;;;;;;1.25;0.40;;;;;;;;;;5103938;28;20024;-74
2022/02/28 10:59:55;;;;;;;1.85;0.40;;;;;;;;;;5103705;28;20048;-74
2022/02/28 11:02:28;;;;;;;0.40;0.30;;;;;;;;;;5102333;28;20031;-74
2022/02/28 11:05:19;;;;;;;1.10;0.45;;;;;;;;;;5102504;28;20044;-75
2022/02/28 11:07:49;;;;;;;2.95;0.60;;;;;;;;;;5104221;28;20024;-74
2022/02/28 11:10:16;;;;;;;1.45;0.63;;;;;;;;;;5103526;28;20051;-74
2022/02/28 11:12:43;;;;;;;3.03;0.80;;;;;;;;;;5102422;28;20027;-74
2022/02/28 11:15:15;;;;;;;0.75;0.40;;;;;;;;;;5101962;28;20024;-74
2022/02/28 11:17:43;;;;;;;2.83;0.65;;;;;;;;;;5104021;28;20027;-74
2022/02/28 11:20:11;;;;;;;1.13;0.40;;;;;;;;;;5102663;28;20036;-74
2022/02/28 11:22:41;;;;;;;0.20;0.20;;;;;;;;;;5103657;28;20034;-74
2022/02/28 11:25:09;;;;;;;0.10;0.10;;;;;;;;;;5102694;28;20081;-74
2022/02/28 11:27:36;;;;;;;1.13;0.40;;;;;;;;;;5103506;28;20079;-74
2022/02/28 11:30:13;;;;;;;0.70;0.40;;;;;;;;;;5103594;28;20118;-74
2022/02/28 11:32:39;;;;;;;0.45;0.28;;;;;;;;;;5103790;28;20020;-74
2022/02/28 11:35:38;;;;;;;1.05;0.32;;;;;;;;;;5103604;28;20024;-74
2022/02/28 11:38:19;;;;;;;1.25;0.30;;;;;;;;;;5102193;28;20026;-74
2022/02/28 11:41:00;;;;;;;2.47;0.30;;;;;;;;;;5103476;28;20039;-74
2022/02/28 11:43:28;;;;;;;0.93;0.30;;;;;;;;;;5103157;28;20071;-74
2022/02/28 11:46:00;;;;;;;2.25;0.45;;;;;;;;;;5103285;28;20047;-74
2022/02/28 11:48:37;;;;;;;0.90;0.50;;;;;;;;;;5103109;28;20028;-74
2022/02/28 11:51:22;;;;;;;2.08;0.40;;;;;;;;;;5102006;28;20032;-74
2022/02/28 11:53:51;;;;;;;0.15;0.13;;;;;;;;;;5102837;28;20092;-74
2022/02/28 11:56:16;;;;;;;3.47;0.60;;;;;;;;;;5103263;28;20024;-75
2022/02/28 11:59:02;;;;;;;0.20;0.20;;;;;;;;;;5101603;28;20202;-74
2022/02/28 12:01:42;;;;;;;3.70;0.40;;;;;;;;;;5101713;28;20016;-74
2022/02/28 12:04:10;;;;;;;0.93;0.40;;;;;;;;;;5103152;28;20021;-74
2022/02/28 12:06:55;;;;;;;0.40;0.30;;;;;;;;;;5102871;28;20382;-74
2022/02/28 12:09:36;;;;;;;0.82;0.43;;;;;;;;;;5103246;28;20419;-74
2022/02/28 12:12:20;;;;;;;0.95;0.40;;;;;;;;;;5103030;28;20088;-74
2022/02/28 12:14:55;;;;;;;0.68;0.30;;;;;;;;;;5101539;28;20062;-74
2022/02/28 12:17:34;;;;;;;0.57;0.30;;;;;;;;;;5102821;28;20024;-74
2022/02/28 12:20:16;;;;;;;0.70;0.55;;;;;;;;;;5102781;28;20024;-74
2022/02/28 12:22:54;;;;;;;1.40;0.60;;;;;;;;;;5102900;28;20470;-73
2022/02/28 12:25:33;;;;;;;0.65;0.40;;;;;;;;;;5102550;28;20134;-74
2022/02/28 12:28:17;;;;;;;0.20;0.20;;;;;;;;;;5102940;28;20054;-74
2022/02/28 12:30:45;;;;;;;;;;;;;;;;;;5103478;28;20513;-73
2022/02/28 12:33:12;;;;;;;0.22;0.17;;;;;;;;;;5102757;28;19915;-74
2022/02/28 12:35:59;;;;;;;0.80;0.30;;;;;;;;;;5102847;28;20020;-74
2022/02/28 12:38:30;;;;;;;0.63;0.20;;;;;;;;;;5105140;28;20092;-74
2022/02/28 12:40:58;;;;;;;2.42;0.32;;;;;;;;;;5106268;28;20051;-74
2022/02/28 12:43:26;;;;;;;1.95;0.52;;;;;;;;;;5106554;28;20024;-73
2022/02/28 12:45:54;;;;;;;2.97;0.50;;;;;;;;;;5106092;28;20151;-74
2022/02/28 12:48:21;;;;;;;0.93;0.47;;;;;;;;;;5106410;28;20088;-74
2022/02/28 12:50:51;;;;;;;0.30;0.30;;;;;;;;;;5105979;28;20069;-74
2022/02/28 12:53:17;;;;;;;1.55;0.70;;;;;;;;;;5106197;28;20031;-74
2022/02/28 12:56:00;;;;;;;0.88;0.32;;;;;;;;;;5106349;28;20035;-73
2022/02/28 12:58:28;;;;;;;0.20;0.20;;;;;;;;;;5106242;28;20084;-74
2022/02/28 13:01:06;;;;;;;2.58;0.35;;;;;;;;;;5106019;28;20028;-74
2022/02/28 13:03:43;;;;;;;0.35;0.20;;;;;;;;;;5106251;28;20024;-74
2022/02/28 13:06:13;;;;;;;0.20;0.15;;;;;;;;;;5104522;28;20111;-75
2022/02/28 13:08:41;;;;;;;1.50;0.22;;;;;;;;;;5105860;28;20047;-74
2022/02/28 13:11:20;;;;;;;0.20;0.20;;;;;;;;;;5105953;28;20054;-74
2022/02/28 13:14:06;;;;;;;0.15;0.15;;;;;;;;;;5106106;28;20107;-74
2022/02/28 13:16:40;;;;;;;1.45;0.57;;;;;;;;;;5105935;28;20068;-74
2022/02/28 13:19:10;;;;;;;0.55;0.30;;;;;;;;;;5104242;28;20024;-74
2022/02/28 13:21:41;;;;;;;0.80;0.32;;;;;;;;;;5105847;28;20071;-74
2022/02/28 13:24:12;;;;;;;0.25;0.20;;;;;;;;;;5105467;28;20170;-74
2022/02/28 13:26:39;;;;;;;0.98;0.43;;;;;;;;;;5105730;28;20038;-74
2022/02/28 13:29:06;;;;;;;0.68;0.40;;;;;;;;;;5105531;28;20087;-74
2022/02/28 13:31:34;;;;;;;2.92;0.52;;;;;;;;;;5105864;28;20050;-74
2022/02/28 13:34:05;;;;;;;0.98;0.47;;;;;;;;;;5105238;28;20050;-74
2022/02/28 13:36:38;;;;;;;2.90;0.50;;;;;;;;;;5104247;28;20020;-74
2022/02/28 13:39:05;;;;;;;0.68;0.22;;;;;;;;;;5104167;28;20016;-74
2022/02/28 13:41:39;;;;;;;2.30;0.85;;;;;;;;;;5105801;28;20521;-74
2022/02/28 13:44:13;;;;;;;2.30;0.80;;;;;;;;;;5105429;28;20046;-73
2022/02/28 13:46:51;;;;;;;4.40;0.70;;;;;;;;;;5104164;28;20032;-74
2022/02/28 13:49:17;;;;;;;1.98;0.52;;;;;;;;;;5104311;28;20028;-73
2022/02/28 13:51:42;;;;;;;2.67;0.65;;;;;;;;;;5103922;28;20057;-74
2022/02/28 13:54:11;;;;;;;1.15;0.77;;;;;;;;;;5103776;28;20024;-73
2022/02/28 13:56:37;;;;;;;0.95;0.70;;;;;;;;;;5104033;28;20020;-74
2022/02/28 13:59:14;;;;;;;1.85;0.65;;;;;;;;;;5104966;28;20081;-74
2022/02/28 14:01:51;;;;;;;2.15;0.60;;;;;;;;;;5103667;28;20047;-74
2022/02/28 14:04:20;;;;;;;2.65;0.70;;;;;;;;;;5103342;28;20024;-74
2022/02/28 14:06:55;;;;;;;1.45;0.77;;;;;;;;;;5104944;28;20378;-74
2022/02/28 14:09:29;;;;;;;5.45;0.77;;;;;;;;;;5105324;28;20027;-74
2022/02/28 14:11:55;;;;;;;3.30;1.02;;;;;;;;;;5103702;28;20483;-74
2022/02/28 14:14:22;;;;;;;1.77;0.65;;;;;;;;;;5104811;28;20055;-74
2022/02/28 14:16:58;;;;;;;1.05;0.70;;;;;;;;;;5104857;28;20039;-74
2022/02/28 14:19:39;;;;;;;1.90;0.80;;;;;;;;;;5103270;28;20023;-73
2022/02/28 14:22:05;;;;;;;1.42;0.50;;;;;;;;;;5104645;28;20080;-74
2022/02/28 14:24:30;;;;;;;1.67;0.60;;;;;;;;;;5104239;28;20040;-74
2022/02/28 14:26:58;;;;;;;3.17;0.73;;;;;;;;;;5104594;28;20023;-74
2022/02/28 14:29:27;;;;;;;2.95;1.10;;;;;;;;;;5105212;28;20024;-74
2022/02/28 14:31:56;;;;;;;3.95;0.80;;;;;;;;;;5106552;28;20035;-74
2022/02/28 14:34:23;;;;;;;4.13;0.90;;;;;;;;;;5105340;28;20118;-74
2022/02/28 14:36:49;;;;;;;3.20;1.00;;;;;;;;;;5104851;28;20032;-74
2022/02/28 14:39:17;;;;;;;3.95;1.00;;;;;;;;;;5103938;28;20092;-74
2022/02/28 14:41:43;;;;;;;2.88;0.93;;;;;;;;;;5104492;28;20690;-73
2022/02/28 14:44:09;;;;;;;2.35;0.90;;;;;;;;;;5104204;28;20016;-74
2022/02/28 14:46:40;;;;;;;2.20;0.60;;;;;;;;;;5104317;28;20020;-74